Diplomat, Indiana
Current Conditions -  °F | °C
As of 9:54 PM on Monday 26 Jan 2015 (Local Time) from KFWA Reporting Station
Overcast Overcast  
Wind Chill: 12°   Ceiling: 5500
Heat Index: 19°   Visibility: 10mi
Dew Point: 13°   Wind: 5mph
Humidity: 77%   Direction: 100°E
Pressure: 29.95"   Gusts: NA
Location:  41.0028°N, 85.0396°W
Report Text: KFWA 270254Z 10004KT 10SM OVC055 M07/M11 A2995 RMK AO2 SLP157 T10721106 50009
Loading
Personal Weather Stations






























Interactive Weather Map New forecast layout! Learn more

10-Day Weather Forecast

Advertisements
Track Severe Weather on mobile